^^
Your Local Weather - Clay, NY Station Historical Data
 
Daily Summary for April 23, 2019 Units:  English    Metric   Both
« Previous Day
Next Day »
Daily Weekly Monthly Yearly Custom
  Current: High: Low: Average:
Temperature: 58.2 °F 75.7 °F 42.9 °F 57 °F
Dew Point: 54.3 °F 54.3 °F 39.3 °F 46.5 °F
Humidity: 87% 91% 36% 71%
Wind Speed: 2.0mph 8.0mph 0.0mph 1.6mph
Wind Gust: 4.0mph 13.0mph - -
WindSSW - - SSE
Pressure: 29.63 in 30.07 in 29.63 in -
Precipitation: 0.18 in      
Historical Graphs
 
 
Tabular Data for April 23, 2019
Time Temperature Dew Point Pressure Wind Wind Speed Wind Gust Humidity Rainfall Rate (Hourly) solar
00:04 46.8 °F 41.9 °F 30.07 in Calm     83% 0.00 in 0.00 W/m2
00:08 46.8 °F 41.9 °F 30.07 in Calm     83% 0.00 in 0.00 W/m2
00:14 46.9 °F 42.0 °F 30.07 in Calm     83% 0.00 in 0.00 W/m2
00:18 46.9 °F 42.0 °F 30.07 in Calm     83% 0.00 in 0.00 W/m2
00:24 47.0 °F 42.1 °F 30.07 in Calm     83% 0.00 in 0.00 W/m2
00:28 47.1 °F 42.2 °F 30.07 in Calm     83% 0.00 in 0.00 W/m2
00:34 47.1 °F 42.2 °F 30.07 in Calm     83% 0.00 in 0.00 W/m2
00:38 47.1 °F 42.2 °F 30.07 in Calm     83% 0.00 in 0.00 W/m2
00:44 47.2 °F 42.0 °F 30.06 in Calm     82% 0.00 in 0.00 W/m2
00:48 47.1 °F 41.9 °F 30.06 in Calm     82% 0.00 in 0.00 W/m2
00:54 47.0 °F 41.8 °F 30.06 in Calm     82% 0.00 in 0.00 W/m2
00:58 46.9 °F 41.7 °F 30.05 in Calm     82% 0.00 in 0.00 W/m2
01:04 46.7 °F 41.5 °F 30.05 in Calm     82% 0.00 in 0.00 W/m2
01:08 46.7 °F 41.5 °F 30.05 in Calm     82% 0.00 in 0.00 W/m2
01:14 46.5 °F 41.3 °F 30.05 in Calm     82% 0.00 in 0.00 W/m2
01:18 46.3 °F 41.1 °F 30.05 in Calm     82% 0.00 in 0.00 W/m2
01:24 46.1 °F 40.9 °F 30.05 in Calm     82% 0.00 in 0.00 W/m2
01:28 46.0 °F 41.1 °F 30.04 in Calm     83% 0.00 in 0.00 W/m2
01:34 45.9 °F 41.0 °F 30.04 in Calm     83% 0.00 in 0.00 W/m2
01:38 45.7 °F 40.8 °F 30.04 in Calm     83% 0.00 in 0.00 W/m2
01:44 45.4 °F 40.5 °F 30.04 in Calm     83% 0.00 in 0.00 W/m2
01:48 45.3 °F 40.4 °F 30.04 in Calm     83% 0.00 in 0.00 W/m2
01:54 45.1 °F 40.6 °F 30.04 in Calm     84% 0.00 in 0.00 W/m2
01:58 45.1 °F 40.6 °F 30.04 in Calm     84% 0.00 in 0.00 W/m2
02:04 45.0 °F 40.5 °F 30.03 in Calm     84% 0.00 in 0.00 W/m2
02:08 44.9 °F 40.4 °F 30.03 in Calm     84% 0.00 in 0.00 W/m2
02:14 44.8 °F 40.3 °F 30.03 in Calm     84% 0.00 in 0.00 W/m2
02:18 44.9 °F 40.7 °F 30.03 in Calm     85% 0.00 in 0.00 W/m2
02:24 44.9 °F 40.7 °F 30.02 in Calm     85% 0.00 in 0.00 W/m2
02:28 44.8 °F 40.6 °F 30.02 in Calm     85% 0.00 in 0.00 W/m2
02:34 44.6 °F 40.4 °F 30.02 in Calm     85% 0.00 in 0.00 W/m2
02:38 44.3 °F 40.1 °F 30.02 in Calm     85% 0.00 in 0.00 W/m2
02:44 44.1 °F 39.9 °F 30.02 in Calm     85% 0.00 in 0.00 W/m2
02:48 44.0 °F 39.8 °F 30.02 in Calm     85% 0.00 in 0.00 W/m2
02:54 43.8 °F 39.6 °F 30.02 in Calm     85% 0.00 in 0.00 W/m2
02:58 43.8 °F 39.9 °F 30.02 in Calm     86% 0.00 in 0.00 W/m2
03:04 43.6 °F 39.7 °F 30.02 in Calm     86% 0.00 in 0.00 W/m2
03:08 43.5 °F 39.6 °F 30.02 in Calm     86% 0.00 in 0.00 W/m2
03:14 43.4 °F 39.5 °F 30.01 in Calm     86% 0.00 in 0.00 W/m2
03:18 43.3 °F 39.7 °F 30.01 in Calm     87% 0.00 in 0.00 W/m2
03:24 43.3 °F 39.7 °F 30.01 in Calm     87% 0.00 in 0.00 W/m2
03:28 43.2 °F 39.6 °F 30.01 in Calm     87% 0.00 in 0.00 W/m2
03:34 43.0 °F 39.4 °F 30.02 in Calm     87% 0.00 in 0.00 W/m2
03:38 42.9 °F 39.3 °F 30.02 in Calm     87% 0.00 in 0.00 W/m2
03:44 42.9 °F 39.3 °F 30.01 in Calm     87% 0.00 in 0.00 W/m2
03:48 42.9 °F 39.3 °F 30.01 in Calm     87% 0.00 in 0.00 W/m2
03:54 43.0 °F 39.7 °F 30.01 in Calm     88% 0.00 in 0.00 W/m2
03:58 43.0 °F 39.7 °F 30.01 in Calm     88% 0.00 in 0.00 W/m2
04:04 43.2 °F 39.9 °F 30.01 in Calm     88% 0.00 in 0.00 W/m2
04:08 43.3 °F 40.0 °F 30.01 in Calm     88% 0.00 in 0.00 W/m2
04:14 43.3 °F 40.0 °F 30.01 in Calm     88% 0.00 in 0.00 W/m2
04:18 43.3 °F 40.0 °F 30.01 in Calm     88% 0.00 in 0.00 W/m2
04:24 43.3 °F 40.0 °F 30.01 in Calm     88% 0.00 in 0.00 W/m2
04:28 43.2 °F 39.9 °F 30.01 in Calm     88% 0.00 in 0.00 W/m2
04:34 43.3 °F 40.0 °F 30.01 in Calm     88% 0.00 in 0.00 W/m2
04:38 43.4 °F 40.1 °F 30.01 in Calm     88% 0.00 in 0.00 W/m2
04:44 43.4 °F 40.4 °F 30.00 in Calm     89% 0.00 in 0.00 W/m2
04:48 43.4 °F 40.4 °F 30.01 in Calm     89% 0.00 in 0.00 W/m2
04:54 43.4 °F 40.4 °F 30.00 in Calm     89% 0.00 in 0.00 W/m2
04:58 43.5 °F 40.5 °F 30.00 in Calm     89% 0.00 in 0.00 W/m2
05:04 43.6 °F 40.6 °F 30.00 in Calm     89% 0.00 in 0.00 W/m2
05:08 43.6 °F 40.6 °F 30.00 in Calm     89% 0.00 in 0.00 W/m2
05:14 43.6 °F 40.6 °F 30.00 in Calm     89% 0.00 in 0.00 W/m2
05:18 43.6 °F 40.6 °F 30.00 in Calm     89% 0.00 in 0.00 W/m2
05:24 43.6 °F 40.6 °F 30.00 in Calm     89% 0.00 in 0.00 W/m2
05:28 43.7 °F 40.7 °F 30.00 in Calm     89% 0.00 in 0.00 W/m2
05:34 43.6 °F 40.6 °F 30.00 in Calm     89% 0.00 in 0.00 W/m2
05:38 43.5 °F 40.5 °F 30.00 in Calm     89% 0.00 in 0.00 W/m2
05:44 43.3 °F 40.3 °F 29.99 in Calm     89% 0.00 in 0.00 W/m2
05:48 43.3 °F 40.3 °F 29.99 in Calm     89% 0.00 in 0.00 W/m2
05:54 43.4 °F 40.4 °F 29.99 in Calm     89% 0.00 in 0.00 W/m2
05:58 43.3 °F 40.3 °F 29.99 in Calm     89% 0.00 in 0.00 W/m2
06:04 43.4 °F 40.7 °F 30.00 in Calm     90% 0.00 in 0.00 W/m2
06:08 43.5 °F 40.8 °F 29.99 in Calm     90% 0.00 in 0.00 W/m2
06:14 43.4 °F 40.7 °F 30.00 in Calm     90% 0.00 in 0.00 W/m2
06:18 43.5 °F 40.8 °F 29.99 in Calm     90% 0.00 in 5.00 W/m2
06:24 43.5 °F 40.8 °F 29.99 in Calm     90% 0.00 in 11.00 W/m2
06:28 43.4 °F 40.7 °F 29.99 in Calm     90% 0.00 in 14.00 W/m2
06:34 43.4 °F 40.7 °F 30.00 in Calm     90% 0.00 in 16.00 W/m2
06:38 43.4 °F 40.7 °F 30.00 in Calm     90% 0.00 in 21.00 W/m2
06:44 43.4 °F 40.7 °F 30.00 in Calm     90% 0.00 in 25.00 W/m2
06:48 43.3 °F 40.6 °F 30.00 in Calm     90% 0.00 in 33.00 W/m2
06:54 43.5 °F 40.8 °F 29.99 in Calm     90% 0.00 in 65.00 W/m2
06:58 44.0 °F 41.3 °F 29.99 in Calm     90% 0.00 in 91.00 W/m2
07:04 44.7 °F 41.9 °F 29.99 in Calm     90% 0.00 in 111.00 W/m2
07:08 45.2 °F 42.7 °F 29.99 in Calm     91% 0.00 in 121.00 W/m2
07:14 45.5 °F 42.7 °F 29.99 in Calm     90% 0.00 in 137.00 W/m2
07:18 46.1 °F 43.3 °F 29.99 in Calm     90% 0.00 in 148.00 W/m2
07:24 46.8 °F 44.0 °F 29.98 in Calm     90% 0.00 in 165.00 W/m2
07:28 47.2 °F 44.4 °F 29.98 in Calm     90% 0.00 in 188.00 W/m2
07:34 47.7 °F 44.6 °F 29.98 in Calm   1.0 mph 89% 0.00 in 220.00 W/m2
07:38 48.0 °F 44.6 °F 29.98 in Calm   2.0 mph 88% 0.00 in 248.00 W/m2
07:44 48.7 °F 45.0 °F 29.98 in NNW 1.0 mph 1.0 mph 87% 0.00 in 290.00 W/m2
07:48 49.3 °F 45.3 °F 29.97 in SSE 1.0 mph 2.0 mph 86% 0.00 in 297.00 W/m2
07:54 49.9 °F 45.3 °F 29.97 in SSE 1.0 mph 2.0 mph 84% 0.00 in 276.00 W/m2
07:58 50.4 °F 45.4 °F 29.97 in SSE 2.0 mph 2.0 mph 83% 0.00 in 285.00 W/m2
08:04 51.0 °F 45.7 °F 29.97 in SE 2.0 mph 3.0 mph 82% 0.00 in 294.00 W/m2
08:08 51.3 °F 45.7 °F 29.97 in SE 1.0 mph 4.0 mph 81% 0.00 in 320.00 W/m2
08:14 51.8 °F 45.5 °F 29.96 in SSE 1.0 mph 2.0 mph 79% 0.00 in 309.00 W/m2
08:18 52.4 °F 45.7 °F 29.96 in SSE 1.0 mph 2.0 mph 78% 0.00 in 283.00 W/m2
08:24 52.9 °F 45.9 °F 29.96 in SSE 1.0 mph 3.0 mph 77% 0.00 in 283.00 W/m2
08:28 53.3 °F 45.9 °F 29.96 in SSE 1.0 mph 3.0 mph 76% 0.00 in 334.00 W/m2
08:34 53.8 °F 46.1 °F 29.96 in SE 1.0 mph 4.0 mph 75% 0.00 in 357.00 W/m2
08:38 54.3 °F 46.2 °F 29.96 in SE 1.0 mph 4.0 mph 74% 0.00 in 436.00 W/m2
08:44 55.0 °F 46.5 °F 29.96 in Calm   1.0 mph 73% 0.00 in 439.00 W/m2
08:48 55.5 °F 46.6 °F 29.95 in Calm   2.0 mph 72% 0.00 in 385.00 W/m2
08:54 55.6 °F 46.3 °F 29.95 in Calm     71% 0.00 in 360.00 W/m2
08:58 55.8 °F 46.2 °F 29.95 in SW 1.0 mph 2.0 mph 70% 0.00 in 327.00 W/m2
09:04 55.8 °F 46.2 °F 29.94 in SW 1.0 mph 1.0 mph 70% 0.00 in 450.00 W/m2
09:08 56.1 °F 46.4 °F 29.94 in Calm   2.0 mph 70% 0.00 in 420.00 W/m2
09:14 56.4 °F 46.4 °F 29.94 in SSE 1.0 mph 3.0 mph 69% 0.00 in 497.00 W/m2
09:18 57.1 °F 47.0 °F 29.94 in SSE 1.0 mph 3.0 mph 69% 0.00 in 513.00 W/m2
09:24 57.6 °F 46.7 °F 29.94 in Calm     67% 0.00 in 531.00 W/m2
09:28 57.8 °F 46.9 °F 29.93 in Calm     67% 0.00 in 548.00 W/m2
09:34 57.7 °F 46.4 °F 29.93 in ENE 1.0 mph 1.0 mph 66% 0.00 in 564.00 W/m2
09:38 58.3 °F 47.4 °F 29.93 in ENE 1.0 mph 1.0 mph 67% 0.00 in 577.00 W/m2
09:44 59.5 °F 48.1 °F 29.93 in Calm   3.0 mph 66% 0.00 in 584.00 W/m2
09:48 59.0 °F 47.2 °F 29.93 in SE 1.0 mph 3.0 mph 65% 0.00 in 598.00 W/m2
09:54 59.6 °F 46.6 °F 29.93 in SE 1.0 mph 1.0 mph 62% 0.00 in 622.00 W/m2
09:58 60.5 °F 47.8 °F 29.92 in Calm   1.0 mph 63% 0.00 in 635.00 W/m2
10:04 60.3 °F 46.8 °F 29.91 in SE 1.0 mph 2.0 mph 61% 0.00 in 649.00 W/m2
10:08 60.3 °F 48.1 °F 29.91 in SSE 1.0 mph 2.0 mph 64% 0.00 in 661.00 W/m2
10:14 60.4 °F 48.6 °F 29.91 in East 2.0 mph 4.0 mph 65% 0.00 in 673.00 W/m2
10:18 60.7 °F 48.4 °F 29.90 in ESE 2.0 mph 4.0 mph 64% 0.00 in 686.00 W/m2
10:24 59.9 °F 48.1 °F 29.90 in ENE 3.0 mph 4.0 mph 65% 0.00 in 701.00 W/m2
10:28 59.8 °F 48.8 °F 29.90 in East 3.0 mph 4.0 mph 67% 0.00 in 710.00 W/m2
10:34 60.0 °F 49.0 °F 29.89 in NE 2.0 mph 8.0 mph 67% 0.00 in 724.00 W/m2
10:38 60.7 °F 48.9 °F 29.89 in ENE 2.0 mph 8.0 mph 65% 0.00 in 737.00 W/m2
10:44 61.0 °F 48.7 °F 29.89 in East 3.0 mph 7.0 mph 64% 0.00 in 766.00 W/m2
10:48 61.6 °F 48.4 °F 29.88 in ENE 3.0 mph 7.0 mph 62% 0.00 in 805.00 W/m2
10:54 61.4 °F 48.7 °F 29.88 in ENE 3.0 mph 6.0 mph 63% 0.00 in 907.00 W/m2
10:58 61.5 °F 48.4 °F 29.88 in North 3.0 mph 6.0 mph 62% 0.00 in 923.00 W/m2
11:04 60.8 °F 48.5 °F 29.88 in North 3.0 mph 5.0 mph 64% 0.00 in 260.00 W/m2
11:08 60.7 °F 48.0 °F 29.88 in NW 3.0 mph 5.0 mph 63% 0.00 in 404.00 W/m2
11:14 60.9 °F 48.2 °F 29.88 in NE 3.0 mph 5.0 mph 63% 0.00 in 520.00 W/m2
11:18 61.4 °F 48.3 °F 29.88 in North 3.0 mph 5.0 mph 62% 0.00 in 592.00 W/m2
11:24 62.1 °F 48.9 °F 29.88 in NNE 2.0 mph 3.0 mph 62% 0.00 in 867.00 W/m2
11:28 62.8 °F 50.4 °F 29.87 in NNE 2.0 mph 3.0 mph 64% 0.00 in 854.00 W/m2
11:32 62.6 °F 51.5 °F 29.87 in NE 2.0 mph 4.0 mph 67% 0.00 in 858.00 W/m2
11:38 63.0 °F 49.3 °F 29.86 in NNE 3.0 mph 4.0 mph 61% 0.00 in 874.00 W/m2
11:44 63.9 °F 49.3 °F 29.86 in NE 2.0 mph 3.0 mph 59% 0.00 in 960.00 W/m2
11:48 64.1 °F 49.0 °F 29.86 in NE 2.0 mph 3.0 mph 58% 0.00 in 807.00 W/m2
11:54 63.9 °F 50.6 °F 29.86 in North 2.0 mph 5.0 mph 62% 0.00 in 854.00 W/m2
11:58 64.2 °F 49.1 °F 29.86 in NNE 2.0 mph 5.0 mph 58% 0.00 in 598.00 W/m2
12:04 64.1 °F 49.0 °F 29.85 in ENE 2.0 mph 4.0 mph 58% 0.00 in 408.00 W/m2
12:08 63.9 °F 49.7 °F 29.84 in ENE 2.0 mph 5.0 mph 60% 0.00 in 276.00 W/m2
12:14 63.4 °F 48.8 °F 29.83 in NE 2.0 mph 3.0 mph 59% 0.00 in 204.00 W/m2
12:18 63.5 °F 49.4 °F 29.83 in ENE 2.0 mph 4.0 mph 60% 0.00 in 195.00 W/m2
12:24 63.3 °F 49.6 °F 29.82 in ENE 2.0 mph 5.0 mph 61% 0.00 in 327.00 W/m2
12:28 64.0 °F 50.7 °F 29.83 in ENE 3.0 mph 5.0 mph 62% 0.00 in 464.00 W/m2
12:34 65.3 °F 50.1 °F 29.83 in ENE 2.0 mph 5.0 mph 58% 0.00 in 497.00 W/m2
12:38 65.8 °F 51.5 °F 29.82 in SE 2.0 mph 5.0 mph 60% 0.00 in 766.00 W/m2
12:44 66.4 °F 49.7 °F 29.82 in East 3.0 mph 7.0 mph 55% 0.00 in 761.00 W/m2
12:48 66.3 °F 50.6 °F 29.82 in North 3.0 mph 7.0 mph 57% 0.00 in 564.00 W/m2
12:54 66.4 °F 50.7 °F 29.82 in ESE 3.0 mph 4.0 mph 57% 0.00 in 429.00 W/m2
12:58 66.1 °F 49.9 °F 29.81 in ENE 2.0 mph 4.0 mph 56% 0.00 in 541.00 W/m2
13:04 66.7 °F 50.0 °F 29.81 in East 2.0 mph 2.0 mph 55% 0.00 in 589.00 W/m2
13:08 67.7 °F 49.9 °F 29.80 in NNE 1.0 mph 3.0 mph 53% 0.00 in 796.00 W/m2
13:14 69.0 °F 51.2 °F 29.80 in NE 1.0 mph 2.0 mph 53% 0.00 in 807.00 W/m2
13:18 68.2 °F 51.9 °F 29.80 in NE 2.0 mph 4.0 mph 56% 0.00 in 766.00 W/m2
13:24 68.6 °F 50.8 °F 29.80 in NE 2.0 mph 4.0 mph 53% 0.00 in 712.00 W/m2
13:28 69.3 °F 52.4 °F 29.79 in ENE 2.0 mph 4.0 mph 55% 0.00 in 712.00 W/m2
13:34 70.6 °F 53.1 °F 29.78 in East 3.0 mph 3.0 mph 54% 0.00 in 1113.00 W/m2
13:38 71.5 °F 53.5 °F 29.78 in ENE 2.0 mph 3.0 mph 53% 0.00 in 1044.00 W/m2
13:44 72.2 °F 53.6 °F 29.78 in ENE 2.0 mph 2.0 mph 52% 0.00 in 1042.00 W/m2
13:48 71.9 °F 51.7 °F 29.78 in SSE 1.0 mph 2.0 mph 49% 0.00 in 359.00 W/m2
13:54 72.1 °F 52.4 °F 29.78 in Calm   1.0 mph 50% 0.00 in 367.00 W/m2
13:58 71.9 °F 50.6 °F 29.77 in Calm   1.0 mph 47% 0.00 in 381.00 W/m2
14:04 73.3 °F 54.1 °F 29.77 in Calm     51% 0.00 in 1055.00 W/m2
14:08 75.1 °F 51.1 °F 29.76 in SSE 1.0 mph 5.0 mph 43% 0.00 in 1007.00 W/m2
14:14 75.2 °F 52.4 °F 29.75 in SSE 2.0 mph 2.0 mph 45% 0.00 in 874.00 W/m2
14:18 75.7 °F 51.6 °F 29.74 in SE 2.0 mph 10.0 mph 43% 0.00 in 329.00 W/m2
14:24 75.0 °F 47.0 °F 29.74 in SSE 6.0 mph 7.0 mph 37% 0.00 in 424.00 W/m2
14:28 74.6 °F 46.6 °F 29.73 in SSW 7.0 mph 8.0 mph 37% 0.00 in 315.00 W/m2
14:34 74.6 °F 45.9 °F 29.72 in SSW 6.0 mph 7.0 mph 36% 0.00 in 206.00 W/m2
14:38 74.3 °F 46.3 °F 29.72 in SSE 5.0 mph 7.0 mph 37% 0.00 in 160.00 W/m2
14:44 73.9 °F 46.0 °F 29.71 in South 5.0 mph 7.0 mph 37% 0.00 in 118.00 W/m2
14:48 73.8 °F 46.6 °F 29.70 in SSE 4.0 mph 7.0 mph 38% 0.00 in 111.00 W/m2
14:54 73.9 °F 47.4 °F 29.70 in South 4.0 mph 8.0 mph 39% 0.00 in 146.00 W/m2
14:58 73.8 °F 47.3 °F 29.70 in SSW 6.0 mph 8.0 mph 39% 0.00 in 183.00 W/m2
15:04 73.8 °F 48.6 °F 29.69 in SW 5.0 mph 6.0 mph 41% 0.00 in 179.00 W/m2
15:08 73.8 °F 47.3 °F 29.69 in South 5.0 mph 6.0 mph 39% 0.00 in 214.00 W/m2
15:14 74.1 °F 48.2 °F 29.69 in SSE 5.0 mph 9.0 mph 40% 0.00 in 253.00 W/m2
15:18 74.4 °F 47.1 °F 29.69 in SSW 5.0 mph 9.0 mph 38% 0.00 in 253.00 W/m2
15:24 74.4 °F 48.5 °F 29.69 in SSE 6.0 mph 9.0 mph 40% 0.00 in 172.00 W/m2
15:28 74.3 °F 47.7 °F 29.69 in SW 5.0 mph 9.0 mph 39% 0.00 in 125.00 W/m2
15:34 74.2 °F 47.6 °F 29.68 in SW 4.0 mph 5.0 mph 39% 0.00 in 139.00 W/m2
15:38 74.1 °F 47.6 °F 29.69 in South 3.0 mph 5.0 mph 39% 0.00 in 139.00 W/m2
15:44 74.1 °F 47.6 °F 29.69 in SW 4.0 mph 6.0 mph 39% 0.00 in 95.00 W/m2
15:48 74.0 °F 48.1 °F 29.68 in SE 4.0 mph 8.0 mph 40% 0.00 in 111.00 W/m2
15:54 73.9 °F 48.1 °F 29.68 in SSW 4.0 mph 4.0 mph 40% 0.00 in 139.00 W/m2
15:58 73.9 °F 48.1 °F 29.68 in SSE 4.0 mph 6.0 mph 40% 0.00 in 109.00 W/m2
16:04 73.6 °F 47.8 °F 29.67 in SSW 5.0 mph 8.0 mph 40% 0.00 in 67.00 W/m2
16:08 73.2 °F 48.1 °F 29.66 in SSW 5.0 mph 8.0 mph 41% 0.00 in 39.00 W/m2
16:14 72.9 °F 48.5 °F 29.65 in SE 5.0 mph 13.0 mph 42% 0.00 in 46.00 W/m2
16:18 72.6 °F 48.8 °F 29.64 in South 7.0 mph 13.0 mph 43% 0.00 in 72.00 W/m2
16:24 72.1 °F 49.6 °F 29.64 in SW 8.0 mph 10.0 mph 45% 0.00 in 74.00 W/m2
16:28 71.6 °F 49.7 °F 29.66 in South 6.0 mph 10.0 mph 46% 0.00 in 88.00 W/m2
16:34 71.3 °F 50.0 °F 29.66 in SW 6.0 mph 7.0 mph 47% 0.00 in 97.00 W/m2
16:38 71.0 °F 50.3 °F 29.66 in SW 5.0 mph 7.0 mph 48% 0.00 in 93.00 W/m2
16:44 70.6 °F 49.4 °F 29.66 in SSW 4.0 mph 7.0 mph 47% 0.00 in 83.00 W/m2
16:48 70.5 °F 49.9 °F 29.66 in SSW 5.0 mph 7.0 mph 48% 0.00 in 81.00 W/m2
16:52 70.4 °F 49.8 °F 29.66 in SSW 5.0 mph 5.0 mph 48% 0.00 in 81.00 W/m2
16:58 70.2 °F 50.1 °F 29.66 in SSW 5.0 mph 7.0 mph 49% 0.00 in 46.00 W/m2
17:04 69.8 °F 49.8 °F 29.66 in SSE 7.0 mph 10.0 mph 49% 0.00 in 30.00 W/m2
17:08 69.5 °F 49.5 °F 29.66 in SW 6.0 mph 10.0 mph 49% 0.00 in 26.00 W/m2
17:14 69.2 °F 49.8 °F 29.66 in South 5.0 mph 7.0 mph 50% 0.00 in 21.00 W/m2
17:18 69.0 °F 50.1 °F 29.67 in SW 5.0 mph 7.0 mph 51% 0.00 in 9.00 W/m2
17:24 68.5 °F 50.2 °F 29.67 in SSW 4.0 mph 5.0 mph 52% 0.00 in 11.00 W/m2
17:28 67.7 °F 51.9 °F 29.67 in South 4.0 mph 5.0 mph 57% 0.00 in 18.00 W/m2
17:34 66.8 °F 52.5 °F 29.67 in SSW 2.0 mph 3.0 mph 60% 0.08 in 21.00 W/m2
17:38 65.8 °F 53.3 °F 29.67 in SSW 1.0 mph 3.0 mph 64% 0.08 in 19.00 W/m2
17:44 65.1 °F 52.6 °F 29.67 in South 1.0 mph 3.0 mph 64% 0.06 in 23.00 W/m2
17:48 65.1 °F 52.2 °F 29.67 in South 2.0 mph 3.0 mph 63% 0.04 in 19.00 W/m2
17:54 65.4 °F 52.0 °F 29.66 in South 4.0 mph 5.0 mph 62% 0.00 in 19.00 W/m2
17:58 65.6 °F 51.8 °F 29.66 in SSE 5.0 mph 6.0 mph 61% 0.00 in 21.00 W/m2
18:04 65.6 °F 51.8 °F 29.66 in SSE 5.0 mph 5.0 mph 61% 0.00 in 26.00 W/m2
18:08 65.7 °F 51.9 °F 29.65 in SE 5.0 mph 5.0 mph 61% 0.00 in 33.00 W/m2
18:14 65.8 °F 52.0 °F 29.65 in SSW 5.0 mph 6.0 mph 61% 0.00 in 40.00 W/m2
18:18 65.6 °F 51.8 °F 29.65 in SSW 5.0 mph 6.0 mph 61% 0.00 in 35.00 W/m2
18:24 65.5 °F 52.1 °F 29.64 in SSE 4.0 mph 8.0 mph 62% 0.00 in 12.00 W/m2
18:28 65.4 °F 51.6 °F 29.65 in SW 5.0 mph 8.0 mph 61% 0.00 in 7.00 W/m2
18:34 64.5 °F 52.5 °F 29.65 in SW 5.0 mph 7.0 mph 65% 0.16 in 11.00 W/m2
18:38 64.0 °F 52.8 °F 29.65 in SSW 5.0 mph 7.0 mph 67% 0.09 in 11.00 W/m2
18:44 63.5 °F 52.7 °F 29.65 in SW 5.0 mph 5.0 mph 68% 0.05 in 9.00 W/m2
18:48 62.9 °F 52.6 °F 29.65 in SSW 3.0 mph 5.0 mph 69% 0.15 in 7.00 W/m2
18:54 62.3 °F 52.8 °F 29.65 in SSW 2.0 mph 3.0 mph 71% 0.16 in 5.00 W/m2
18:58 61.9 °F 52.4 °F 29.65 in SSW 1.0 mph 3.0 mph 71% 0.12 in 5.00 W/m2
19:04 61.7 °F 52.6 °F 29.65 in Calm   1.0 mph 72% 0.10 in 5.00 W/m2
19:08 61.5 °F 52.8 °F 29.65 in Calm   1.0 mph 73% 0.13 in 5.00 W/m2
19:14 60.9 °F 53.3 °F 29.66 in Calm     76% 0.07 in 5.00 W/m2
19:18 60.3 °F 53.4 °F 29.66 in Calm     78% 0.06 in 0.00 W/m2
19:24 59.8 °F 53.6 °F 29.66 in Calm     80% 0.09 in 0.00 W/m2
19:28 59.5 °F 53.7 °F 29.66 in Calm     81% 0.12 in 0.00 W/m2
19:34 59.3 °F 53.8 °F 29.66 in Calm     82% 0.13 in 0.00 W/m2
19:38 59.2 °F 54.0 °F 29.66 in Calm     83% 0.11 in 0.00 W/m2
19:44 58.9 °F 53.7 °F 29.65 in Calm     83% 0.10 in 0.00 W/m2
19:48 58.9 °F 54.1 °F 29.66 in Calm     84% 0.10 in 0.00 W/m2
19:54 58.8 °F 54.0 °F 29.66 in Calm     84% 0.06 in 0.00 W/m2
19:58 58.7 °F 54.2 °F 29.66 in Calm     85% 0.05 in 0.00 W/m2
20:04 58.6 °F 54.1 °F 29.66 in Calm   1.0 mph 85% 0.09 in 0.00 W/m2
20:08 58.4 °F 53.9 °F 29.65 in Calm   1.0 mph 85% 0.08 in 0.00 W/m2
20:14 58.3 °F 53.8 °F 29.64 in Calm   2.0 mph 85% 0.05 in 0.00 W/m2
20:18 58.3 °F 54.1 °F 29.64 in SSW 1.0 mph 3.0 mph 86% 0.00 in 0.00 W/m2
20:24 58.2 °F 54.0 °F 29.64 in SSW 1.0 mph 1.0 mph 86% 0.00 in 0.00 W/m2
20:28 58.1 °F 53.9 °F 29.64 in SSW 1.0 mph 3.0 mph 86% 0.00 in 0.00 W/m2
20:34 58.1 °F 54.2 °F 29.64 in SSW 1.0 mph 2.0 mph 87% 0.00 in 0.00 W/m2
20:38 58.1 °F 54.2 °F 29.64 in SSW 1.0 mph 2.0 mph 87% 0.00 in 0.00 W/m2
20:44 58.2 °F 54.3 °F 29.63 in SSW 2.0 mph 4.0 mph 87% 0.00 in 0.00 W/m2
Country Meadow, Clay, NY, USA
Compliments of Weather Underground - 2 mb